Airfield :
LOGIN :

Register | Disclaimer

   EN    FR    IT 

 










Legend :    VFR   Marginal VFR   IFR   Intensive IFR   Very Intensive IFR
Visi :
Ceiling :
>= 8 km
>= 3000ft
5 to 8 km
1000 to 3000 ft
1500m to 5 km
500 to 1000 ft
800 to 1500m
200 to 500 ft
< 800m
< 200 ft
Symbols :   Thunderstorms  Fog  Heavy snow  Heavy precipitations  Wind > 20 kt
SIGMETs :     Misc.  Thunderstorms  Icing  Turbulence  Mountain Waves  Volcanic Ashes







- Airport Elevation : 126 ft
- IATA code : WIC
- Download approach charts


EGPC - Wick

CURRENT METAR :
  • 210850Z 35018KT 9999 SCT035 09/06 Q0990

EXPIRED METARs :
  • 210820Z 35019KT 9999 SCT034 09/06 Q0990
  • 210750Z 35019KT 9999 FEW018 09/07 Q0990
  • 210720Z 36021KT 9999 FEW018 SCT028 09/07 Q0989
  • 210650Z 01020KT 9999 -RA FEW012 SCT031 09/08 Q0989

TAF TAF EGPC
Valid from the 21 at 09:00 until the 21 at 18:00 UTC


210800Z 2109/2118 35015KT 9999 SCT025
TEMPO 2109/2118 33020G30KT
PROB40
TEMPO 2112/2118 6000 SHRA
BECMG 2114/2117 30015KT
ATIS : +44 1955 607 596
No reported NOTAMs for that airfield.
1 SIGMET reported for the Scottish FIR (EGPX) :
 
Severe turbulence
EGPX SIGMET 03 VALID 210900/211200 EGRR
EGPX SCOTTISH FIR SEV TURB FCST SE OF LINE N5500 W00330 - N6100 W00018 SFC/FL060 MOV E 15KT NC=



MET'MAP, your aeronautical weather chart ! - Copyright ORBIFLY December 2007 - Disclaimer

ORBIFLY MET'MAP TEAM :

Programming & Development : Alexandra Zaïnal
Concept & Development : Baudouin d'Aumeries
Co-Development & Prog : Marc-Olivier Méhu
Technical & hardware support : Manuel Goepfert

Contact : metmap@orbifly.com




SOURCES & CREDITS :

   NOAA